Pagina principale
METAR-TAF:

METAR-TAF

Aeroporti :

Lahr, Germania

latitudine: 48-22-09N, longitudine: 007-49-40E, altezza: 156 m

Osservazione

Il bollettino è stato emesso 30 minuti fa, alle 06:20 UTC
Vento 5 kt da nord
Temperature 25°C
Umidità 74%
Pressione 1023 hPa
Visibilità 10 km o più
nessuna nube inferiore a 1500 m e nessun cumulonembo

METAR: EDTL 270620Z 36005KT CAVOK 25/20 Q1023

Ora: 08:50 (06:50 UTC)

Previsione

Il bollettino è stato emesso 41 minuti fa, alle 06:09 UTC
Previsione valida dal 27 alle 07 UTC al 27 alle 15 UTC
Vento 3 kt da direzioni variabili
Visibilità 10 km o più
nessuna nube inferiore a 1500 m e nessun cumulonembo
Evoluzione graduale
dal 27 alle 07 UTC al 27 alle 09 UTC
Vento 9 kt da nord

TAF: EDTL 270609Z 2707/2715 VRB03KT CAVOK BECMG 2707/2709 01009KT

Osservazioni e previsioni meteorologiche di più di 4000 aeroporti (messaggi METAR e TAF).

Le stazioni disponibili sono rappresentate dai dischi gialli e rossi sulla carta.

Puntare il mouse per vedere il nome della stazione.

Clicca sopra per visualizzare le osservazioni e previsioni meteorologiche.

Per cambiare la mappa : fare clic sui pulsanti verdi con una croce nera per ingrandire, il pulsante verde con un trattino per diminuire, o sulla freccia verde per le mappe adiacenti.


METAR-TAF: